Meath Environmental Platform

Observations for Trim Market St

Time AQI Temp °C Hum % Pres Pa CO μg/m³ H₂S μg/m³ NO μg/m³ NO₂ μg/m³ O₃ μg/m³ SO₂ μg/m³ PM1 μg/m³ PM2.5 μg/m³ PM10 μg/m³
Friday 10 July 2026
21:40 1 24.2 57 57,911 0 0 0 10.3 16.04 0 0.71 3.18 4
21:39 1 24.3 56 57,907 0 0.3 0 12.99 14.41 0 1.43 3.19 3.99
21:38 1 24.3 56 57,901 0 0 0 14.41 10.32 0 1.43 4.71 7.53
21:37 1 24.3 56 57,895 0 0 0 13.32 8.91 0 1.43 3.2 3.98
21:36 1 24.4 56 57,889 0 0.98 3.59 17.89 2.27 0 3.56 5.73 7.53
21:35 1 24.4 56 57,880 0 0 0 11 15.55 0 1.43 3.2 3.98
21:34 1 24.4 56 57,869 0 0 0 9.92 13.71 0 0.71 3.21 3.98
21:33 1 24.5 56 57,854 0 0 0 9.2 12.55 0 1.43 3.21 3.98
21:32 1 24.5 56 57,839 0 0 0 11.91 11.53 0 1.43 3.22 3.97
21:31 1 24.5 56 57,821 0 0 0 9.51 15.58 0 1.43 3.72 4.68
21:29 1 24.6 56 57,799 0 0 0 11.31 10.35 0 0 2.72 3.25
21:24 1 24.8 55 57,669 0 0 0 11.68 8.83 0 2.14 3.74 4.67
21:20 1 24.9 55 57,439 0 0 0 10.88 13.28 0 0.71 3.25 3.95
21:18 1 25 55 57,375 0 0 0 9.27 15.14 0 1.43 2.75 3.23
21:13 1 25.1 55 57,255 0 0 0 11.87 11.42 0 3.56 5.81 7.53
21:10 1 25.2 54 57,125 0 0 0 13.57 9.96 0 0.71 3.28 3.93
21:09 1 25.2 54 57,063 0 0 0.55 17.08 5.73 0 1.43 3.79 5.37
21:08 1 25.3 54 57,016 0 0 0 10.97 12.19 0 0.71 2.78 3.21
21:07 1 25.3 54 56,976 0 0 0 7.77 14.42 0 1.43 3.29 3.93
21:05 1 25.4 54 56,932 0 0 0 10.55 14.05 0 0 2.27 3.92